createdAt,value
2023-05-08T00:01:12.100Z,3.33
2023-05-08T00:03:39.279Z,2.80
2023-05-08T00:06:06.877Z,3.40
2023-05-08T00:08:33.862Z,3.25
2023-05-08T00:11:00.846Z,3.05
2023-05-08T00:13:28.010Z,3.00
2023-05-08T00:15:55.071Z,3.53
2023-05-08T00:18:22.056Z,3.70
2023-05-08T00:20:49.230Z,3.00
2023-05-08T00:23:16.244Z,3.03
2023-05-08T00:25:43.281Z,3.70
2023-05-08T00:28:10.289Z,3.70
2023-05-08T00:30:38.774Z,3.28
2023-05-08T00:33:05.804Z,3.95
2023-05-08T00:35:34.592Z,3.78
2023-05-08T00:38:01.553Z,4.20
2023-05-08T00:40:28.611Z,3.03
2023-05-08T00:42:55.658Z,3.10
2023-05-08T00:45:22.804Z,3.70
2023-05-08T00:47:51.277Z,2.78
2023-05-08T00:50:19.171Z,2.97
2023-05-08T00:52:47.118Z,3.78
2023-05-08T00:55:14.070Z,3.72
2023-05-08T00:57:41.267Z,4.60
2023-05-08T01:00:09.914Z,3.40
2023-05-08T01:02:37.218Z,3.25
2023-05-08T01:05:04.817Z,3.22
2023-05-08T01:07:32.820Z,3.50
2023-05-08T01:09:59.790Z,3.65
2023-05-08T01:12:56.005Z,3.97
2023-05-08T01:15:52.311Z,3.35
2023-05-08T01:18:27.866Z,3.30
2023-05-08T01:21:11.725Z,3.33
2023-05-08T01:24:25.120Z,3.90
2023-05-08T01:27:46.197Z,3.25
2023-05-08T01:30:40.354Z,3.13
2023-05-08T01:33:41.805Z,3.55
2023-05-08T01:36:34.834Z,3.33
2023-05-08T01:39:10.198Z,3.72
2023-05-08T01:41:39.621Z,3.60
2023-05-08T01:44:21.429Z,3.22
2023-05-08T01:46:52.567Z,3.50
2023-05-08T01:49:30.525Z,3.55
2023-05-08T01:52:04.850Z,5.63
2023-05-08T01:54:52.406Z,4.03
2023-05-08T01:57:21.241Z,3.75
2023-05-08T01:59:49.765Z,4.65
2023-05-08T02:02:19.058Z,4.53
2023-05-08T02:04:49.499Z,4.05
2023-05-08T02:07:16.940Z,4.90
2023-05-08T02:09:44.837Z,3.85
2023-05-08T02:12:13.295Z,4.22
2023-05-08T02:14:42.666Z,4.65
2023-05-08T02:17:11.228Z,4.30
2023-05-08T02:19:41.079Z,4.60
2023-05-08T02:22:10.272Z,4.32
2023-05-08T02:24:38.380Z,4.88
2023-05-08T02:27:06.821Z,4.93
2023-05-08T02:29:35.922Z,4.07
2023-05-08T02:32:04.796Z,4.53
2023-05-08T02:34:32.786Z,4.25
2023-05-08T02:37:01.718Z,4.35
2023-05-08T02:39:31.888Z,4.30
2023-05-08T02:41:59.163Z,4.25
2023-05-08T02:44:26.403Z,4.35
2023-05-08T02:47:15.471Z,4.32
2023-05-08T02:50:07.095Z,4.10
2023-05-08T02:52:43.077Z,5.18
2023-05-08T02:55:22.606Z,4.63
2023-05-08T02:58:01.897Z,4.93
2023-05-08T03:00:41.003Z,4.57
2023-05-08T03:03:15.413Z,4.82
2023-05-08T03:05:47.921Z,5.15
2023-05-08T03:08:19.784Z,4.57
2023-05-08T03:10:51.322Z,5.22
2023-05-08T03:13:21.078Z,5.40
2023-05-08T03:15:58.826Z,5.25
2023-05-08T03:18:39.509Z,4.80
2023-05-08T03:21:08.514Z,5.18
2023-05-08T03:23:37.047Z,5.72
2023-05-08T03:26:05.925Z,5.53
2023-05-08T03:28:36.635Z,5.65
2023-05-08T03:31:06.284Z,5.90
2023-05-08T03:33:33.961Z,6.07
2023-05-08T03:36:01.060Z,5.43
2023-05-08T03:38:28.542Z,6.03
2023-05-08T03:40:55.690Z,6.43
2023-05-08T03:43:23.766Z,5.68
2023-05-08T03:45:51.370Z,6.40
2023-05-08T03:48:19.437Z,5.50
2023-05-08T03:50:47.299Z,6.57
2023-05-08T03:53:14.539Z,5.68
2023-05-08T03:55:41.823Z,5.97
2023-05-08T03:58:22.707Z,7.22
2023-05-08T04:01:06.005Z,6.43
2023-05-08T04:04:00.989Z,6.82
2023-05-08T04:06:50.541Z,6.15
2023-05-08T04:09:33.381Z,6.50
2023-05-08T04:12:21.952Z,6.55
2023-05-08T04:14:56.891Z,6.70
2023-05-08T04:17:42.729Z,6.45
2023-05-08T04:20:14.935Z,6.60
2023-05-08T04:22:43.482Z,5.37
2023-05-08T04:25:15.669Z,5.60
2023-05-08T04:27:44.539Z,5.57
2023-05-08T04:30:13.693Z,5.15
2023-05-08T04:32:44.140Z,5.82
2023-05-08T04:35:14.717Z,6.55
2023-05-08T04:37:43.702Z,5.28
2023-05-08T04:40:11.284Z,5.18
2023-05-08T04:42:42.830Z,5.72
2023-05-08T04:45:10.986Z,5.55
2023-05-08T04:47:38.136Z,4.93
2023-05-08T04:50:06.064Z,5.22
2023-05-08T04:52:34.840Z,4.57
2023-05-08T04:55:02.417Z,4.88
2023-05-08T04:57:31.389Z,6.38
2023-05-08T04:59:58.526Z,6.55
2023-05-08T05:02:31.135Z,8.15
2023-05-08T05:04:58.931Z,7.00
2023-05-08T05:07:27.056Z,5.40
2023-05-08T05:09:54.320Z,5.20
2023-05-08T05:12:21.453Z,5.18
2023-05-08T05:14:48.448Z,6.22
2023-05-08T05:17:15.408Z,6.22
2023-05-08T05:19:42.369Z,5.57
2023-05-08T05:22:10.119Z,5.57
2023-05-08T05:24:37.180Z,6.13
2023-05-08T05:27:04.956Z,5.40
2023-05-08T05:29:32.753Z,5.78
2023-05-08T05:32:01.584Z,5.45
2023-05-08T05:34:29.281Z,5.93
2023-05-08T05:36:56.340Z,6.20
2023-05-08T05:39:23.383Z,5.93
2023-05-08T05:41:50.554Z,5.68
2023-05-08T05:44:18.369Z,5.25
2023-05-08T05:46:47.653Z,5.63
2023-05-08T05:49:14.743Z,6.20
2023-05-08T05:51:42.778Z,7.05
2023-05-08T05:54:23.916Z,6.45
2023-05-08T05:56:52.889Z,7.20
2023-05-08T05:59:21.326Z,7.22
2023-05-08T06:01:48.501Z,7.22
2023-05-08T06:04:15.556Z,6.85
2023-05-08T06:06:42.926Z,7.80
2023-05-08T06:09:10.021Z,7.90
2023-05-08T06:11:37.135Z,9.07
2023-05-08T06:14:04.269Z,8.70
2023-05-08T06:16:32.183Z,8.25
2023-05-08T06:18:59.986Z,8.85
2023-05-08T06:21:28.875Z,8.70
2023-05-08T06:23:58.557Z,9.73
2023-05-08T06:26:26.420Z,10.70
2023-05-08T06:28:54.660Z,10.98
2023-05-08T06:31:21.773Z,11.55
2023-05-08T06:33:49.055Z,11.65
2023-05-08T06:36:16.285Z,11.35
2023-05-08T06:38:43.271Z,11.82
2023-05-08T06:41:10.296Z,12.82
2023-05-08T06:43:37.252Z,14.50
2023-05-08T06:46:05.490Z,13.07
2023-05-08T06:48:32.900Z,14.32
2023-05-08T06:50:59.896Z,14.35
2023-05-08T06:53:27.283Z,14.70
2023-05-08T06:55:54.422Z,14.10
2023-05-08T06:58:21.637Z,15.20
2023-05-08T07:00:48.631Z,14.85
2023-05-08T07:03:16.813Z,13.75
2023-05-08T07:05:43.839Z,15.05
2023-05-08T07:08:11.190Z,16.00
2023-05-08T07:10:38.376Z,15.43
2023-05-08T07:13:05.379Z,17.85
2023-05-08T07:15:32.665Z,16.40
2023-05-08T07:18:00.463Z,16.27
2023-05-08T07:20:27.964Z,18.33
2023-05-08T07:22:56.548Z,16.58
2023-05-08T07:25:23.880Z,17.73
2023-05-08T07:27:50.891Z,17.27
2023-05-08T07:30:18.253Z,17.15
2023-05-08T07:32:45.435Z,16.02
2023-05-08T07:35:13.116Z,17.02
2023-05-08T07:37:40.543Z,16.02
2023-05-08T07:40:08.037Z,16.48
2023-05-08T07:42:42.852Z,17.77
2023-05-08T07:45:12.150Z,17.60
2023-05-08T07:47:48.213Z,18.52
2023-05-08T07:50:15.250Z,17.40
2023-05-08T07:52:44.736Z,16.23
2023-05-08T07:55:12.064Z,17.45
2023-05-08T07:57:41.837Z,17.10
2023-05-08T08:00:11.692Z,16.58
2023-05-08T08:02:42.499Z,15.77
2023-05-08T08:05:10.260Z,18.23
2023-05-08T08:07:37.515Z,17.27
2023-05-08T08:10:05.184Z,17.92
2023-05-08T08:12:32.320Z,18.83
2023-05-08T08:15:00.527Z,18.90
2023-05-08T08:17:29.124Z,17.65
2023-05-08T08:19:57.262Z,18.02
2023-05-08T08:22:25.910Z,16.15
2023-05-08T08:24:55.420Z,15.55
2023-05-08T08:27:24.359Z,15.38
2023-05-08T08:29:56.357Z,13.98
2023-05-08T08:32:31.793Z,14.02
2023-05-08T08:34:58.745Z,15.15
2023-05-08T08:37:26.328Z,15.48
2023-05-08T08:39:53.753Z,14.68
2023-05-08T08:42:20.862Z,14.65
2023-05-08T08:44:48.029Z,15.65
2023-05-08T08:47:19.199Z,15.27
2023-05-08T08:49:51.103Z,15.20
2023-05-08T08:52:43.148Z,16.05
2023-05-08T08:57:52.798Z,14.18
2023-05-08T09:00:21.532Z,14.85
2023-05-08T09:02:48.940Z,14.50
2023-05-08T09:05:16.323Z,14.48
2023-05-08T09:07:43.973Z,14.90
2023-05-08T09:10:15.531Z,17.50
2023-05-08T09:12:42.873Z,17.10
2023-05-08T09:15:10.160Z,16.08
2023-05-08T09:17:37.199Z,15.13
2023-05-08T09:20:04.962Z,16.73
2023-05-08T09:22:32.562Z,16.25
2023-05-08T09:25:01.101Z,16.77
2023-05-08T09:27:29.994Z,16.40
2023-05-08T09:30:01.127Z,15.65
2023-05-08T09:32:29.814Z,15.55
2023-05-08T09:34:57.475Z,14.48
2023-05-08T09:37:25.777Z,13.32
2023-05-08T09:39:53.173Z,13.77
2023-05-08T09:42:20.375Z,11.48
2023-05-08T09:44:48.237Z,13.55
2023-05-08T09:47:23.444Z,11.40
2023-05-08T09:50:10.719Z,10.27
2023-05-08T09:52:39.338Z,10.10
2023-05-08T09:55:11.435Z,10.93
2023-05-08T10:00:13.025Z,11.23
2023-05-08T10:02:42.636Z,10.13
2023-05-08T10:05:39.283Z,9.95
2023-05-08T10:08:34.246Z,9.95
2023-05-08T10:11:18.659Z,10.00
2023-05-08T10:13:46.464Z,10.57
2023-05-08T10:16:18.545Z,10.88
2023-05-08T10:18:48.776Z,11.50
2023-05-08T10:21:17.068Z,10.68
2023-05-08T10:23:47.058Z,10.15
2023-05-08T10:26:19.159Z,11.00
2023-05-08T10:28:56.923Z,10.43
2023-05-08T10:31:29.776Z,9.57
2023-05-08T10:33:59.121Z,10.27
2023-05-08T10:36:30.363Z,9.70
2023-05-08T10:38:58.832Z,11.07
2023-05-08T10:41:26.884Z,10.23
2023-05-08T10:43:54.603Z,9.60
2023-05-08T10:46:42.364Z,9.20
2023-05-08T10:49:34.109Z,10.02
2023-05-08T10:52:19.163Z,8.93
2023-05-08T10:55:06.486Z,9.15
2023-05-08T10:57:33.485Z,8.85
2023-05-08T11:00:01.036Z,7.32
2023-05-08T11:02:30.299Z,7.85
2023-05-08T11:05:16.981Z,9.00
2023-05-08T11:07:56.900Z,6.60
2023-05-08T11:10:37.200Z,6.47
2023-05-08T11:13:05.598Z,6.25
2023-05-08T11:15:38.417Z,6.65
2023-05-08T11:18:17.604Z,7.72
2023-05-08T11:20:59.985Z,6.78
2023-05-08T11:23:29.212Z,7.57
2023-05-08T11:26:05.052Z,8.40
2023-05-08T11:28:52.615Z,8.30
2023-05-08T11:31:19.948Z,8.15
2023-05-08T11:33:47.117Z,9.02
2023-05-08T11:36:20.665Z,8.63
2023-05-08T11:39:15.634Z,8.88
2023-05-08T11:41:45.129Z,9.40
2023-05-08T11:44:22.028Z,9.10
2023-05-08T11:46:56.218Z,9.35
2023-05-08T11:49:29.105Z,8.63
2023-05-08T11:51:59.894Z,8.43
2023-05-08T11:54:31.939Z,8.48
2023-05-08T11:56:59.887Z,7.45
2023-05-08T11:59:27.032Z,7.75
2023-05-08T12:02:07.029Z,8.27
2023-05-08T12:07:15.839Z,8.13
2023-05-08T12:09:43.010Z,7.13
2023-05-08T12:12:10.084Z,8.05
2023-05-08T12:14:37.377Z,8.35
2023-05-08T12:17:04.426Z,8.35
2023-05-08T12:19:31.478Z,7.57
2023-05-08T12:21:58.576Z,7.13
2023-05-08T12:24:27.976Z,7.55
2023-05-08T12:26:56.547Z,7.32
2023-05-08T12:29:27.265Z,8.27
2023-05-08T12:31:54.504Z,8.90
2023-05-08T12:34:22.432Z,8.70
2023-05-08T12:37:02.289Z,11.73
2023-05-08T12:39:29.473Z,9.68
2023-05-08T12:41:59.579Z,8.57
2023-05-08T12:44:28.353Z,9.00
2023-05-08T12:46:57.725Z,9.75
2023-05-08T12:49:29.490Z,9.30
2023-05-08T12:54:40.629Z,8.48
2023-05-08T12:57:13.592Z,10.02
2023-05-08T12:59:41.953Z,9.75
2023-05-08T13:02:21.939Z,9.90
2023-05-08T13:04:53.506Z,9.23
2023-05-08T13:07:20.655Z,8.93
2023-05-08T13:09:58.234Z,10.82
2023-05-08T13:12:25.243Z,10.10
2023-05-08T13:14:52.192Z,10.43
2023-05-08T13:17:19.697Z,9.73
2023-05-08T13:19:46.649Z,10.95
2023-05-08T13:22:13.597Z,9.35
2023-05-08T13:24:40.737Z,10.38
2023-05-08T13:27:07.780Z,11.23
2023-05-08T13:29:34.816Z,11.32
2023-05-08T13:32:02.451Z,11.95
2023-05-08T13:34:29.537Z,11.93
2023-05-08T13:36:57.189Z,11.63
2023-05-08T13:39:24.663Z,12.30
2023-05-08T13:41:51.710Z,11.85
2023-05-08T13:44:18.763Z,12.93
2023-05-08T13:46:46.504Z,12.30
2023-05-08T13:49:13.490Z,11.38
2023-05-08T13:51:40.507Z,12.85
2023-05-08T13:54:07.571Z,11.85
2023-05-08T13:56:35.452Z,11.88
2023-05-08T13:59:02.466Z,12.32
2023-05-08T14:01:29.543Z,11.70
2023-05-08T14:03:56.656Z,12.30
2023-05-08T14:06:24.042Z,11.38
2023-05-08T14:08:54.228Z,11.30
2023-05-08T14:11:22.381Z,10.82
2023-05-08T14:13:49.612Z,11.15
2023-05-08T14:16:17.182Z,10.93
2023-05-08T14:18:44.228Z,10.68
2023-05-08T14:21:11.314Z,10.00
2023-05-08T14:23:39.006Z,8.95
2023-05-08T14:26:06.021Z,9.30
2023-05-08T14:28:33.208Z,8.57
2023-05-08T14:31:00.581Z,8.68
2023-05-08T14:33:27.793Z,8.40
2023-05-08T14:35:54.951Z,7.80
2023-05-08T14:38:23.350Z,7.50
2023-05-08T14:40:51.802Z,7.05
2023-05-08T14:43:18.995Z,6.90
2023-05-08T14:45:47.662Z,7.50
2023-05-08T14:48:15.107Z,7.30
2023-05-08T14:50:42.610Z,6.85
2023-05-08T14:53:09.748Z,7.32
2023-05-08T14:55:37.611Z,6.93
2023-05-08T14:58:04.878Z,7.35
2023-05-08T15:00:31.864Z,6.80
2023-05-08T15:02:58.948Z,7.05
2023-05-08T15:05:26.419Z,7.50
2023-05-08T15:07:57.377Z,7.63
2023-05-08T15:10:24.979Z,7.90
2023-05-08T15:12:52.075Z,7.78
2023-05-08T15:15:19.071Z,7.55
2023-05-08T15:17:46.218Z,7.25
2023-05-08T15:20:13.436Z,7.53
2023-05-08T15:22:40.900Z,8.15
2023-05-08T15:25:08.023Z,8.70
2023-05-08T15:27:35.254Z,8.20
2023-05-08T15:30:02.243Z,8.73
2023-05-08T15:32:29.642Z,8.35
2023-05-08T15:34:58.251Z,8.13
2023-05-08T15:37:25.272Z,8.85
2023-05-08T15:39:52.347Z,8.85
2023-05-08T15:42:35.025Z,8.88
2023-05-08T15:45:06.794Z,7.35
2023-05-08T15:47:39.302Z,8.30
2023-05-08T15:52:56.195Z,9.23
2023-05-08T15:55:23.557Z,9.80
2023-05-08T15:57:50.597Z,9.43
2023-05-08T16:00:18.014Z,9.60
2023-05-08T16:02:45.268Z,8.90
2023-05-08T16:05:12.678Z,9.13
2023-05-08T16:07:40.286Z,7.15
2023-05-08T16:10:12.909Z,6.45
2023-05-08T16:12:39.973Z,6.68
2023-05-08T16:15:07.509Z,6.75
2023-05-08T16:17:35.822Z,7.93
2023-05-08T16:20:03.872Z,6.95
2023-05-08T16:22:32.450Z,7.57
2023-05-08T16:25:01.389Z,7.22
2023-05-08T16:27:29.072Z,8.35
2023-05-08T16:29:56.412Z,7.35
2023-05-08T16:32:23.530Z,8.43
2023-05-08T16:34:50.661Z,8.00
2023-05-08T16:37:17.630Z,8.15
2023-05-08T16:39:44.620Z,8.18
2023-05-08T16:42:11.655Z,8.23
2023-05-08T16:44:38.751Z,8.57
2023-05-08T16:47:06.022Z,7.90
2023-05-08T16:49:33.257Z,8.68
2023-05-08T16:52:00.409Z,7.10
2023-05-08T16:54:27.917Z,8.10
2023-05-08T16:56:55.037Z,8.40
2023-05-08T16:59:22.366Z,9.07
2023-05-08T17:01:49.472Z,8.65
2023-05-08T17:04:16.681Z,8.38
2023-05-08T17:06:47.123Z,9.20
2023-05-08T17:09:16.551Z,9.18
2023-05-08T17:11:44.772Z,10.77
2023-05-08T17:14:14.562Z,9.65
2023-05-08T17:16:44.158Z,9.35
2023-05-08T17:19:11.227Z,8.80
2023-05-08T17:21:38.603Z,9.80
2023-05-08T17:24:06.451Z,9.77
2023-05-08T17:26:33.638Z,9.57
2023-05-08T17:29:01.320Z,10.02
2023-05-08T17:31:29.323Z,9.60
2023-05-08T17:33:56.515Z,11.05
2023-05-08T17:36:29.055Z,10.85
2023-05-08T17:38:57.781Z,10.45
2023-05-08T17:41:24.981Z,10.13
2023-05-08T17:43:52.732Z,10.95
2023-05-08T17:46:19.725Z,10.73
2023-05-08T17:48:46.802Z,10.35
2023-05-08T17:51:14.404Z,10.75
2023-05-08T17:53:44.733Z,9.98
2023-05-08T17:56:13.403Z,10.77
2023-05-08T17:58:40.388Z,9.95
2023-05-08T18:01:08.016Z,10.07
2023-05-08T18:03:35.367Z,9.90
2023-05-08T18:06:02.578Z,10.90
2023-05-08T18:08:32.711Z,10.00
2023-05-08T18:11:02.418Z,10.68
2023-05-08T18:13:29.565Z,9.70
2023-05-08T18:15:58.240Z,10.07
2023-05-08T18:18:28.057Z,9.25
2023-05-08T18:20:55.964Z,9.68
2023-05-08T18:23:22.983Z,10.30
2023-05-08T18:25:50.014Z,8.88
2023-05-08T18:28:17.057Z,9.23
2023-05-08T18:30:44.307Z,8.90
2023-05-08T18:33:12.633Z,8.05
2023-05-08T18:35:40.292Z,8.80
2023-05-08T18:38:09.485Z,8.02
2023-05-08T18:40:37.049Z,8.07
2023-05-08T18:43:04.573Z,8.60
2023-05-08T18:45:33.577Z,9.65
2023-05-08T18:48:00.657Z,7.57
2023-05-08T18:50:27.809Z,7.88
2023-05-08T18:52:55.063Z,9.23
2023-05-08T18:55:27.254Z,8.63
2023-05-08T18:57:54.942Z,9.32
2023-05-08T19:00:22.812Z,8.48
2023-05-08T19:02:51.380Z,9.18
2023-05-08T19:05:19.429Z,8.13
2023-05-08T19:07:47.952Z,9.80
2023-05-08T19:10:21.116Z,8.65
2023-05-08T19:12:49.414Z,9.68
2023-05-08T19:15:16.712Z,8.52
2023-05-08T19:17:47.735Z,9.70
2023-05-08T19:20:15.304Z,9.57
2023-05-08T19:22:42.817Z,8.35
2023-05-08T19:25:10.247Z,8.65
2023-05-08T19:27:37.416Z,9.20
2023-05-08T19:30:05.180Z,8.13
2023-05-08T19:32:34.032Z,8.23
2023-05-08T19:35:02.720Z,8.68
2023-05-08T19:37:29.842Z,8.45
2023-05-08T19:39:57.881Z,9.32
2023-05-08T19:42:24.979Z,8.43
2023-05-08T19:44:52.059Z,8.68
2023-05-08T19:47:19.146Z,9.60
2023-05-08T19:49:48.266Z,9.00
2023-05-08T19:52:15.627Z,8.70
2023-05-08T19:54:45.256Z,8.38
2023-05-08T19:57:12.727Z,8.18
2023-05-08T19:59:42.302Z,7.72
2023-05-08T20:02:09.867Z,7.22
2023-05-08T20:04:48.760Z,7.10
2023-05-08T20:07:24.023Z,8.68
2023-05-08T20:09:52.020Z,7.50
2023-05-08T20:12:21.122Z,8.65
2023-05-08T20:14:48.285Z,7.55
2023-05-08T20:17:15.429Z,6.78
2023-05-08T20:19:42.879Z,7.20
2023-05-08T20:22:13.823Z,7.15
2023-05-08T20:24:40.824Z,7.83
2023-05-08T20:27:07.771Z,7.45
2023-05-08T20:29:34.742Z,7.82
2023-05-08T20:32:02.552Z,7.30
2023-05-08T20:34:29.958Z,7.55
2023-05-08T20:36:59.219Z,7.60
2023-05-08T20:39:28.522Z,7.18
2023-05-08T20:41:55.613Z,6.88
2023-05-08T20:44:23.869Z,6.15
2023-05-08T20:46:52.969Z,7.32
2023-05-08T20:49:20.617Z,7.28
2023-05-08T20:51:48.037Z,6.90
2023-05-08T20:54:15.754Z,7.93
2023-05-08T20:56:44.389Z,6.65
2023-05-08T20:59:11.586Z,6.80
2023-05-08T21:01:38.623Z,6.28
2023-05-08T21:04:05.863Z,6.32
2023-05-08T21:06:34.319Z,6.53
2023-05-08T21:09:01.257Z,6.63
2023-05-08T21:11:28.269Z,6.32
2023-05-08T21:13:55.334Z,7.32
2023-05-08T21:16:26.793Z,5.55
2023-05-08T21:21:25.673Z,6.10
2023-05-08T21:23:57.083Z,5.93
2023-05-08T21:26:24.235Z,5.45
2023-05-08T21:28:52.557Z,6.05
2023-05-08T21:31:22.546Z,5.50
2023-05-08T21:33:49.761Z,5.35
2023-05-08T21:36:16.918Z,5.70
2023-05-08T21:38:44.661Z,5.80
2023-05-08T21:41:11.691Z,5.50
2023-05-08T21:43:38.891Z,5.25
2023-05-08T21:46:07.338Z,5.78
2023-05-08T21:48:34.643Z,7.07
2023-05-08T21:51:02.180Z,5.90
2023-05-08T21:53:29.558Z,5.05
2023-05-08T21:55:56.694Z,4.97
2023-05-08T21:58:23.614Z,5.90
2023-05-08T22:00:51.666Z,6.47
2023-05-08T22:03:20.575Z,5.82
2023-05-08T22:05:47.628Z,7.18
2023-05-08T22:08:16.212Z,6.00
2023-05-08T22:10:44.430Z,6.15
2023-05-08T22:13:13.474Z,6.25
2023-05-08T22:15:40.743Z,6.20
2023-05-08T22:18:07.922Z,6.32
2023-05-08T22:20:35.587Z,6.88
2023-05-08T22:23:02.631Z,6.78
2023-05-08T22:25:30.212Z,7.13
2023-05-08T22:27:57.477Z,7.38
2023-05-08T22:30:24.484Z,7.45
2023-05-08T22:32:55.337Z,7.47
2023-05-08T22:35:25.547Z,6.82
2023-05-08T22:37:53.761Z,6.88
2023-05-08T22:40:22.652Z,6.22
2023-05-08T22:42:52.066Z,6.80
2023-05-08T22:45:19.752Z,6.47
2023-05-08T22:47:46.844Z,6.65
2023-05-08T22:50:14.215Z,6.10
2023-05-08T22:52:41.367Z,6.75
2023-05-08T22:55:08.796Z,6.65
2023-05-08T22:57:36.064Z,5.90
2023-05-08T23:00:09.622Z,5.97
2023-05-08T23:02:36.872Z,5.18
2023-05-08T23:05:05.201Z,5.68
2023-05-08T23:07:32.145Z,5.90
2023-05-08T23:10:00.177Z,6.28
2023-05-08T23:12:27.228Z,6.88
2023-05-08T23:14:56.591Z,5.28
2023-05-08T23:17:23.668Z,5.68
2023-05-08T23:19:51.074Z,5.50
2023-05-08T23:22:18.061Z,6.05
2023-05-08T23:24:45.081Z,5.78
2023-05-08T23:27:12.235Z,5.40
2023-05-08T23:29:39.197Z,5.68
2023-05-08T23:32:06.217Z,5.43
2023-05-08T23:34:33.414Z,6.13
2023-05-08T23:37:03.516Z,5.13
2023-05-08T23:39:37.713Z,5.10
2023-05-08T23:42:04.853Z,4.97
2023-05-08T23:44:31.763Z,5.07
2023-05-08T23:46:59.366Z,4.40
2023-05-08T23:49:26.791Z,4.50
2023-05-08T23:51:55.404Z,5.00
2023-05-08T23:54:22.374Z,5.63
2023-05-08T23:56:49.433Z,4.45
2023-05-08T23:59:16.923Z,4.25
